Time;durP1;ratioP1;P1;durP2;ratioP2;P2;SDS_P1;SDS_P2;PMS_P1;PMS_P2;Temp;Humidity;BMP_temperature;BMP_pressure;BME280_temperature;BME280_humidity;BME280_pressure;Samples;Min_cycle;Max_cycle;Signal;HPM_P1;HPM_P2
2024/03/09 00:00:42;;;;;;;1.65;1.55;;;;;;;9.57;67.50;100126.66;4480560;31;33057;-82
2024/03/09 00:03:11;;;;;;;4.00;2.65;;;;;;;9.70;66.37;100126.16;4467075;31;33391;-82
2024/03/09 00:05:39;;;;;;;7.32;3.25;;;;;;;9.45;67.30;100120.03;4484277;31;33167;-82
2024/03/09 00:08:08;;;;;;;1.87;1.77;;;;;;;9.55;66.91;100121.44;4478795;31;33367;-82
2024/03/09 00:10:39;;;;;;;4.68;4.37;;;;;;;9.56;66.99;100124.94;4465954;31;33632;-82
2024/03/09 00:13:10;;;;;;;6.12;4.28;;;;;;;9.44;67.30;100128.81;4467776;31;33402;-82
2024/03/09 00:15:41;;;;;;;4.93;2.25;;;;;;;9.64;66.62;100122.91;4481134;31;34331;-84
2024/03/09 00:18:09;;;;;;;4.10;3.20;;;;;;;9.70;66.88;100120.03;4480536;31;34079;-83
2024/03/09 00:20:37;;;;;;;3.33;3.03;;;;;;;9.72;66.86;100118.19;4482898;31;34624;-83
2024/03/09 00:23:08;;;;;;;9.68;4.10;;;;;;;9.83;66.36;100116.06;4496538;31;35009;-83
2024/03/09 00:25:37;;;;;;;11.60;4.35;;;;;;;9.96;65.68;100112.03;4476817;31;33679;-83
2024/03/09 00:28:06;;;;;;;5.43;4.57;;;;;;;9.88;65.91;100114.13;4490593;31;33849;-82
2024/03/09 00:30:35;;;;;;;4.85;3.20;;;;;;;9.82;66.10;100114.31;4497111;31;33404;-82
2024/03/09 00:33:05;;;;;;;4.85;4.22;;;;;;;9.82;65.55;100103.75;4478564;31;34333;-82
2024/03/09 00:35:35;;;;;;;5.35;4.60;;;;;;;9.81;65.88;100102.06;4468310;31;33377;-82
2024/03/09 00:38:03;;;;;;;2.75;2.10;;;;;;;9.79;66.24;100103.03;4465322;31;33239;-82
2024/03/09 00:40:32;;;;;;;2.53;2.35;;;;;;;9.79;65.73;100097.75;4470859;31;33819;-82
2024/03/09 00:43:04;;;;;;;3.62;2.58;;;;;;;9.73;66.11;100097.06;4479016;31;34046;-82
2024/03/09 00:45:32;;;;;;;3.55;3.25;;;;;;;9.73;65.66;100094.44;4481428;31;33511;-82
2024/03/09 00:47:59;;;;;;;2.08;1.95;;;;;;;9.21;67.46;100096.22;4479566;31;32866;-82
2024/03/09 00:50:28;;;;;;;4.50;3.85;;;;;;;9.44;66.16;100098.06;4467080;31;34630;-82
2024/03/09 00:52:56;;;;;;;4.07;3.78;;;;;;;9.74;65.26;100087.38;4479682;31;34184;-82
2024/03/09 00:55:24;;;;;;;3.42;3.12;;;;;;;9.31;66.38;100101.19;4488876;31;33684;-82
2024/03/09 00:57:53;;;;;;;5.05;3.35;;;;;;;9.29;66.59;100103.00;4479538;31;32326;-81
2024/03/09 01:00:23;;;;;;;2.87;2.62;;;;;;;9.22;66.28;100094.44;4491315;31;33993;-82
2024/03/09 01:02:52;;;;;;;9.52;4.00;;;;;;;9.18;66.84;100088.41;4469184;31;33323;-82
2024/03/09 01:05:26;;;;;;;2.95;2.80;;;;;;;9.03;66.27;100080.16;4478710;31;33537;-81
2024/03/09 01:07:56;;;;;;;3.58;3.28;;;;;;;9.14;66.38;100078.03;4479141;31;34026;-82
2024/03/09 01:10:25;;;;;;;3.12;2.90;;;;;;;8.90;66.60;100070.03;4465539;31;34002;-82
2024/03/09 01:12:52;;;;;;;2.00;1.85;;;;;;;8.96;66.41;100075.06;4477475;31;34709;-82
2024/03/09 01:15:20;;;;;;;5.80;4.35;;;;;;;9.10;66.27;100068.50;4476944;31;34434;-81
2024/03/09 01:17:48;;;;;;;2.10;1.92;;;;;;;8.77;67.43;100071.31;4494295;31;34673;-82
2024/03/09 01:20:17;;;;;;;1.75;1.67;;;;;;;8.65;67.34;100063.84;4490762;31;32594;-82
2024/03/09 01:22:45;;;;;;;4.12;3.33;;;;;;;8.51;67.48;100063.41;4489461;31;35023;-81
2024/03/09 01:25:14;;;;;;;0.82;0.82;;;;;;;8.65;67.14;100058.56;4464155;31;32594;-81
2024/03/09 01:27:41;;;;;;;3.67;3.15;;;;;;;8.85;66.82;100048.25;4480219;31;32613;-81
2024/03/09 01:30:09;;;;;;;4.22;2.33;;;;;;;9.10;66.00;100045.66;4492870;31;36066;-82
2024/03/09 01:32:43;;;;;;;2.42;2.17;;;;;;;9.03;66.81;100052.06;4476765;31;32958;-81
2024/03/09 01:35:12;;;;;;;3.22;2.72;;;;;;;9.05;66.22;100036.19;4489375;31;32768;-82
2024/03/09 01:37:42;;;;;;;7.32;2.55;;;;;;;9.22;65.87;100033.84;4476869;31;33216;-81
2024/03/09 01:40:10;;;;;;;1.55;1.45;;;;;;;9.31;65.30;100025.62;4491039;31;33820;-83
2024/03/09 01:42:38;;;;;;;2.78;2.58;;;;;;;9.47;64.84;100023.31;4480678;31;34240;-82
2024/03/09 01:45:07;;;;;;;1.80;1.70;;;;;;;9.45;65.11;100018.09;4478514;31;32448;-83
2024/03/09 01:47:36;;;;;;;2.22;2.03;;;;;;;9.44;65.10;100016.34;4480796;31;33142;-83
2024/03/09 01:50:10;;;;;;;6.65;3.08;;;;;;;9.46;65.00;100011.91;4479097;31;34428;-82
2024/03/09 01:52:43;;;;;;;3.35;1.80;;;;;;;9.51;64.86;99998.56;4476860;31;34429;-82
2024/03/09 01:55:12;;;;;;;2.67;2.50;;;;;;;9.59;64.38;100001.78;4490856;31;33361;-82
2024/03/09 01:57:40;;;;;;;2.65;2.40;;;;;;;9.35;65.01;100005.28;4492215;31;34644;-82
2024/03/09 02:00:09;;;;;;;8.05;4.87;;;;;;;9.49;63.87;99990.72;4477083;31;33839;-83
2024/03/09 02:02:37;;;;;;;6.87;3.60;;;;;;;9.47;64.23;99987.25;4491482;31;33154;-82
2024/03/09 02:05:10;;;;;;;1.60;1.50;;;;;;;9.46;64.09;99985.53;4466865;31;32747;-82
2024/03/09 02:07:45;;;;;;;3.70;3.10;;;;;;;9.47;63.66;99989.03;4490306;31;32616;-82
2024/03/09 02:10:13;;;;;;;3.15;2.80;;;;;;;9.46;63.22;99989.97;4481145;31;34025;-82
2024/03/09 02:12:42;;;;;;;4.50;3.70;;;;;;;9.28;64.07;99994.09;4479140;31;33147;-83
2024/03/09 02:15:16;;;;;;;2.10;1.00;;;;;;;9.12;64.39;99995.56;4466130;31;33685;-82
2024/03/09 02:17:47;;;;;;;4.20;3.90;;;;;;;9.25;63.79;99996.84;4476082;31;33685;-82
2024/03/09 02:20:17;;;;;;;6.65;3.10;;;;;;;9.15;64.27;99998.06;4467634;31;32898;-82
2024/03/09 02:22:46;;;;;;;1.52;1.45;;;;;;;9.35;63.57;100000.00;4489792;31;34160;-83
2024/03/09 02:25:16;;;;;;;3.70;1.55;;;;;;;9.35;63.38;99998.25;4479957;31;34006;-83
2024/03/09 02:27:44;;;;;;;1.62;1.55;;;;;;;9.36;63.69;99999.13;4478525;31;33975;-82
2024/03/09 02:30:12;;;;;;;2.60;2.28;;;;;;;9.23;64.38;99998.69;4479539;31;33996;-83
2024/03/09 02:32:42;;;;;;;5.20;3.08;;;;;;;9.23;64.49;99996.03;4493815;31;34743;-83
2024/03/09 02:35:10;;;;;;;2.20;1.87;;;;;;;9.08;65.20;99999.22;4481179;31;32681;-82
2024/03/09 02:37:39;;;;;;;4.40;4.10;;;;;;;9.22;64.74;99992.56;4477900;31;33086;-83
2024/03/09 02:40:07;;;;;;;4.12;3.00;;;;;;;9.26;65.17;99995.94;4479240;31;33875;-83
2024/03/09 02:42:38;;;;;;;3.12;2.15;;;;;;;9.30;64.71;99987.00;4476642;31;34081;-82
2024/03/09 02:45:07;;;;;;;2.22;2.05;;;;;;;9.38;65.05;99984.09;4471867;31;34292;-82
2024/03/09 02:47:35;;;;;;;2.58;2.33;;;;;;;9.30;65.37;99984.34;4476483;31;33441;-82
2024/03/09 02:50:03;;;;;;;3.67;3.35;;;;;;;9.42;64.91;99991.84;4466097;31;32296;-82
2024/03/09 02:52:31;;;;;;;2.15;2.05;;;;;;;9.59;63.84;99990.34;4489531;31;33782;-82
2024/03/09 02:55:00;;;;;;;6.25;5.43;;;;;;;9.63;63.85;99984.06;4476245;31;33973;-82
2024/03/09 02:57:28;;;;;;;1.85;1.75;;;;;;;9.28;64.75;99986.19;4477657;31;33555;-82
2024/03/09 02:59:56;;;;;;;3.00;2.60;;;;;;;9.40;64.99;99984.88;4490033;31;34301;-82
2024/03/09 03:05:10;;;;;;;2.95;2.75;;;;;;;9.35;65.32;99979.81;4478901;31;34888;-82
2024/03/09 03:07:38;;;;;;;4.30;2.53;;;;;;;9.14;66.18;99983.19;4488734;31;33473;-82
2024/03/09 03:10:08;;;;;;;2.30;1.85;;;;;;;9.22;65.80;99979.38;4491023;31;34446;-82
2024/03/09 03:12:37;;;;;;;5.05;3.05;;;;;;;9.55;65.04;99986.13;4476435;31;34739;-82
2024/03/09 03:15:08;;;;;;;5.10;2.12;;;;;;;9.46;64.88;99980.28;4477083;31;33585;-82
2024/03/09 03:17:37;;;;;;;2.58;2.47;;;;;;;9.34;65.51;99983.34;4477269;31;34194;-82
2024/03/09 03:20:09;;;;;;;1.83;1.73;;;;;;;9.35;65.68;99979.81;4489347;31;33911;-83
2024/03/09 03:22:38;;;;;;;5.07;4.12;;;;;;;9.40;65.68;99982.25;4476957;31;32794;-83
2024/03/09 03:25:10;;;;;;;9.30;4.65;;;;;;;9.35;65.75;99987.72;4466532;31;34027;-83
2024/03/09 03:27:41;;;;;;;1.12;0.77;;;;;;;9.58;65.40;99983.38;4475591;31;32293;-83
2024/03/09 03:30:15;;;;;;;1.92;1.83;;;;;;;9.58;65.33;99986.00;4487331;31;33966;-82
2024/03/09 03:32:43;;;;;;;2.62;2.42;;;;;;;9.68;64.66;99985.59;4465072;31;34664;-83
2024/03/09 03:35:12;;;;;;;2.30;2.20;;;;;;;9.64;65.21;99983.16;4487450;31;33509;-83
2024/03/09 03:37:41;;;;;;;3.85;3.62;;;;;;;9.60;64.76;99981.56;4476850;31;33665;-83
2024/03/09 03:40:10;;;;;;;4.82;2.72;;;;;;;9.64;64.81;99980.53;4477384;31;33226;-82
2024/03/09 03:42:37;;;;;;;2.53;2.33;;;;;;;9.58;65.15;99980.72;4488436;31;33834;-82
2024/03/09 03:45:07;;;;;;;3.53;3.22;;;;;;;9.51;65.74;99984.53;4475960;31;34284;-83
2024/03/09 03:47:34;;;;;;;2.25;2.15;;;;;;;9.46;65.67;99980.28;4474698;31;34653;-83
2024/03/09 03:50:02;;;;;;;4.37;2.80;;;;;;;9.78;64.87;99980.88;4475560;31;34428;-82
2024/03/09 03:52:30;;;;;;;2.85;2.62;;;;;;;9.51;64.85;99977.47;4474084;31;104367;-82
2024/03/09 03:54:58;;;;;;;5.20;3.05;;;;;;;9.51;65.68;99980.09;4476613;31;33271;-82
2024/03/09 03:57:27;;;;;;;2.42;1.98;;;;;;;9.55;65.32;99984.34;4476724;31;33303;-82
2024/03/09 03:59:54;;;;;;;3.25;2.62;;;;;;;9.38;66.22;99986.72;4476412;31;33117;-82
2024/03/09 04:02:24;;;;;;;2.55;2.35;;;;;;;9.45;65.84;99978.56;4490144;31;34111;-82
2024/03/09 04:04:52;;;;;;;3.42;2.22;;;;;;;9.32;66.11;99985.19;4475778;31;33316;-82
2024/03/09 04:07:20;;;;;;;13.85;3.10;;;;;;;9.50;65.35;99986.31;4476079;31;34586;-82
2024/03/09 04:09:47;;;;;;;4.00;3.25;;;;;;;9.29;66.31;99981.78;4474542;31;34319;-82
2024/03/09 04:12:15;;;;;;;2.10;1.95;;;;;;;8.94;67.52;99981.25;4491010;31;33739;-82
2024/03/09 04:14:43;;;;;;;3.83;3.42;;;;;;;8.74;67.80;99978.44;4490467;31;33519;-82
2024/03/09 04:17:12;;;;;;;7.10;5.18;;;;;;;8.76;67.78;99977.44;4477283;31;33619;-82
2024/03/09 04:19:42;;;;;;;4.12;2.40;;;;;;;9.11;66.88;99981.50;4476577;31;33700;-81
2024/03/09 04:22:12;;;;;;;2.08;1.98;;;;;;;9.07;66.77;99976.41;4488160;31;33740;-83
2024/03/09 04:24:45;;;;;;;4.78;3.87;;;;;;;8.97;66.87;99974.12;4488908;31;33573;-83
2024/03/09 04:27:13;;;;;;;3.05;2.80;;;;;;;8.85;67.58;99977.16;4480340;31;34604;-83
2024/03/09 04:29:44;;;;;;;5.00;1.95;;;;;;;9.15;66.50;99975.22;4462215;31;33008;-83
2024/03/09 04:32:13;;;;;;;7.72;4.03;;;;;;;8.94;66.86;99974.22;4475874;31;32774;-82
2024/03/09 04:34:42;;;;;;;1.40;1.37;;;;;;;8.72;67.03;99974.06;4491123;31;34486;-82
2024/03/09 04:37:10;;;;;;;2.10;2.00;;;;;;;8.60;67.90;99977.13;4474872;31;34489;-82
2024/03/09 04:39:43;;;;;;;3.65;3.00;;;;;;;8.90;66.42;99975.22;4476855;31;32325;-82
2024/03/09 04:42:11;;;;;;;3.58;3.28;;;;;;;9.04;66.23;99971.25;4486483;31;34513;-82
2024/03/09 04:44:40;;;;;;;6.22;4.05;;;;;;;8.83;66.73;99972.84;4476254;31;32886;-81
2024/03/09 04:47:08;;;;;;;1.80;1.73;;;;;;;8.97;66.58;99976.75;4488679;31;33812;-82
2024/03/09 04:49:37;;;;;;;2.60;1.80;;;;;;;8.93;66.30;99976.91;4476129;31;33931;-81
2024/03/09 04:52:05;;;;;;;5.80;4.78;;;;;;;9.17;65.50;99977.81;4479481;31;33807;-82
2024/03/09 04:54:33;;;;;;;2.20;1.75;;;;;;;9.08;65.79;99973.72;4480505;31;32910;-82
2024/03/09 04:57:03;;;;;;;2.97;2.72;;;;;;;9.17;65.34;99964.66;4481448;31;33704;-81
2024/03/09 04:59:31;;;;;;;2.75;2.12;;;;;;;8.80;66.53;99968.53;4494778;31;33584;-82
2024/03/09 05:01:59;;;;;;;3.40;2.85;;;;;;;8.87;65.63;99970.03;4489929;31;33770;-82
2024/03/09 05:04:27;;;;;;;4.85;3.05;;;;;;;8.62;67.21;99977.91;4476551;31;33435;-82
2024/03/09 05:06:55;;;;;;;4.30;3.97;;;;;;;8.68;66.90;99974.22;4465943;31;33841;-82
2024/03/09 05:09:25;;;;;;;2.60;2.50;;;;;;;8.75;65.94;99975.75;4476941;31;33365;-82
2024/03/09 05:11:53;;;;;;;3.00;2.72;;;;;;;8.40;67.96;99968.97;4476950;31;34777;-82
2024/03/09 05:14:21;;;;;;;2.67;2.53;;;;;;;8.05;69.01;99970.06;4476900;31;33526;-82
2024/03/09 05:16:50;;;;;;;4.32;3.62;;;;;;;8.27;67.95;99979.03;4492085;31;33440;-82
2024/03/09 05:19:18;;;;;;;3.62;2.80;;;;;;;8.26;67.76;99979.94;4478504;31;33064;-82
2024/03/09 05:21:46;;;;;;;2.95;2.47;;;;;;;8.42;67.25;99967.19;4491523;31;34170;-82
2024/03/09 05:24:14;;;;;;;4.22;3.83;;;;;;;8.43;66.61;99972.38;4479950;31;32846;-82
2024/03/09 05:26:42;;;;;;;1.40;1.20;;;;;;;8.28;67.14;99974.62;4491732;31;33873;-82
2024/03/09 05:29:13;;;;;;;2.65;2.45;;;;;;;8.19;66.80;99976.63;4491732;31;33924;-82
2024/03/09 05:31:43;;;;;;;3.03;2.20;;;;;;;7.84;68.41;99982.97;4479987;31;32731;-82
2024/03/09 05:34:11;;;;;;;7.35;4.80;;;;;;;8.04;67.62;99986.75;4491247;31;33528;-82
2024/03/09 05:36:39;;;;;;;3.97;3.05;;;;;;;8.42;66.56;99977.69;4465604;31;33277;-82
2024/03/09 05:39:07;;;;;;;2.92;2.17;;;;;;;7.79;69.46;99984.88;4492018;31;34404;-82
2024/03/09 05:41:37;;;;;;;3.62;3.33;;;;;;;8.30;66.38;99989.44;4491819;31;34063;-81
2024/03/09 05:44:04;;;;;;;2.20;2.03;;;;;;;8.03;68.42;99979.78;4478765;31;33759;-81
2024/03/09 05:46:32;;;;;;;2.58;2.37;;;;;;;7.73;68.44;99987.66;4478206;31;33720;-81
2024/03/09 05:49:00;;;;;;;4.45;4.15;;;;;;;7.72;68.38;99991.19;4490399;31;34750;-82
2024/03/09 05:51:31;;;;;;;3.17;1.50;;;;;;;7.48;69.58;99997.16;4478099;31;33804;-81
2024/03/09 05:53:59;;;;;;;7.05;2.75;;;;;;;6.91;72.49;100001.28;4466897;31;31938;-81
2024/03/09 05:56:27;;;;;;;3.45;3.25;;;;;;;7.04;70.48;99994.81;4492302;31;33883;-82
2024/03/09 05:58:55;;;;;;;8.48;2.08;;;;;;;6.95;70.37;99999.44;4480481;31;33994;-82
2024/03/09 06:01:26;;;;;;;4.00;3.67;;;;;;;7.03;70.37;100005.38;4475662;31;33748;-82
2024/03/09 06:03:57;;;;;;;2.35;1.80;;;;;;;6.86;72.03;100013.66;4493127;31;34162;-81
2024/03/09 06:06:25;;;;;;;3.12;2.65;;;;;;;7.30;69.41;100004.62;4480028;31;33789;-82
2024/03/09 06:08:52;;;;;;;2.47;2.00;;;;;;;6.94;71.06;100011.72;4477384;31;33701;-81
2024/03/09 06:11:21;;;;;;;4.43;2.92;;;;;;;6.93;70.13;100009.97;4478532;31;34067;-82
2024/03/09 06:13:49;;;;;;;2.37;1.10;;;;;;;6.79;71.37;100001.59;4476551;31;31841;-81
2024/03/09 06:16:18;;;;;;;2.60;2.30;;;;;;;6.67;71.19;100002.75;4475478;31;33011;-81
2024/03/09 06:18:48;;;;;;;2.25;2.05;;;;;;;7.25;69.07;100009.13;4471272;31;32618;-81
2024/03/09 06:21:17;;;;;;;3.67;3.45;;;;;;;6.89;69.48;100009.22;4477083;31;34703;-81
2024/03/09 06:23:45;;;;;;;2.40;1.75;;;;;;;6.67;70.60;100010.63;4488410;31;33723;-81
2024/03/09 06:26:12;;;;;;;2.80;2.60;;;;;;;6.82;69.85;100012.88;4464380;31;32785;-81
2024/03/09 06:28:42;;;;;;;2.22;1.23;;;;;;;7.16;68.44;100007.59;4493387;31;33759;-81
2024/03/09 06:31:10;;;;;;;2.80;2.60;;;;;;;6.81;70.38;100015.53;4478529;31;33820;-81
2024/03/09 06:33:40;;;;;;;2.40;2.28;;;;;;;7.04;69.46;100013.19;4476065;32;33515;-81
2024/03/09 06:36:12;;;;;;;3.33;3.03;;;;;;;6.95;69.38;100007.31;4489692;31;33487;-81
2024/03/09 06:38:40;;;;;;;3.90;2.65;;;;;;;6.98;70.47;100008.12;4476068;31;33923;-81
2024/03/09 06:41:09;;;;;;;4.20;2.40;;;;;;;7.15;69.09;100012.91;4488342;31;34493;-82
2024/03/09 06:43:38;;;;;;;2.10;1.83;;;;;;;7.36;69.11;100007.09;4475104;31;32112;-82
2024/03/09 06:46:08;;;;;;;6.75;4.28;;;;;;;6.85;70.37;100012.81;4478917;31;34519;-82
2024/03/09 06:48:36;;;;;;;3.53;2.87;;;;;;;7.27;68.99;100009.97;4478090;31;33439;-82
2024/03/09 06:51:06;;;;;;;3.05;2.70;;;;;;;6.87;69.99;99999.63;4475663;31;32937;-82
2024/03/09 06:53:34;;;;;;;3.05;2.83;;;;;;;6.61;71.26;100008.16;4477200;31;33701;-82
2024/03/09 06:56:04;;;;;;;1.45;1.45;;;;;;;6.72;71.00;100007.91;4476241;31;32670;-82
2024/03/09 06:58:31;;;;;;;4.97;1.92;;;;;;;7.23;68.42;100008.34;4494140;31;33261;-82
2024/03/09 07:01:01;;;;;;;1.30;1.17;;;;;;;6.76;70.76;100010.41;4489799;31;33649;-82
2024/03/09 07:03:28;;;;;;;4.15;2.90;;;;;;;7.28;68.77;100016.94;4477427;31;32108;-82
2024/03/09 07:05:56;;;;;;;3.78;3.53;;;;;;;7.29;68.16;100013.41;4489619;31;34599;-82
2024/03/09 07:08:25;;;;;;;3.83;3.35;;;;;;;7.34;68.56;100006.25;4475722;31;32890;-82
2024/03/09 07:10:53;;;;;;;1.87;1.77;;;;;;;7.29;68.87;100010.78;4477976;31;34069;-82
2024/03/09 07:13:21;;;;;;;2.60;2.40;;;;;;;7.46;68.35;100017.38;4463678;31;32721;-81
2024/03/09 07:15:48;;;;;;;2.42;2.30;;;;;;;7.43;67.73;100011.28;4476358;31;33809;-81
2024/03/09 07:18:16;;;;;;;5.18;2.22;;;;;;;7.73;66.99;100005.19;4476879;31;33906;-81
2024/03/09 07:20:44;;;;;;;3.12;2.80;;;;;;;7.53;67.40;100000.50;4475114;31;34065;-81
2024/03/09 07:23:13;;;;;;;3.40;0.88;;;;;;;7.89;67.04;99994.19;4476593;31;34362;-81
2024/03/09 07:25:41;;;;;;;6.93;2.62;;;;;;;7.61;67.84;99998.53;4471501;31;32220;-81
2024/03/09 07:28:11;;;;;;;2.58;2.00;;;;;;;7.76;66.63;100008.59;4488112;31;34663;-81
2024/03/09 07:30:40;;;;;;;0.98;0.98;;;;;;;7.97;66.11;100009.72;4490184;31;34262;-81
2024/03/09 07:33:10;;;;;;;5.18;2.75;;;;;;;7.73;66.46;100013.06;4489100;31;33330;-81
2024/03/09 07:35:38;;;;;;;2.45;2.30;;;;;;;8.14;64.76;100004.84;4491617;31;34126;-81
2024/03/09 07:38:06;;;;;;;2.22;2.03;;;;;;;7.56;67.01;100016.19;4488706;31;34714;-81
2024/03/09 07:40:36;;;;;;;2.75;1.90;;;;;;;7.84;65.93;100011.03;4492868;31;34049;-81
2024/03/09 07:43:06;;;;;;;3.45;2.50;;;;;;;8.04;65.75;100008.66;4481235;31;33539;-81
2024/03/09 07:45:35;;;;;;;2.28;2.17;;;;;;;7.88;65.42;100018.78;4475388;31;32799;-81
2024/03/09 07:48:04;;;;;;;2.60;1.73;;;;;;;7.92;66.07;100007.22;4487498;31;34683;-81
2024/03/09 07:50:32;;;;;;;3.90;3.55;;;;;;;8.53;64.14;100001.03;4476800;31;33971;-81
2024/03/09 07:53:01;;;;;;;2.75;2.17;;;;;;;8.55;63.58;100005.34;4472269;31;33803;-81
2024/03/09 07:55:32;;;;;;;1.73;1.67;;;;;;;8.42;63.70;100009.28;4483551;31;33612;-81
2024/03/09 07:58:01;;;;;;;4.90;2.53;;;;;;;8.64;63.42;100009.44;4467411;31;32604;-81
2024/03/09 08:00:48;;;;;;;0.62;0.62;;;;;;;8.64;63.01;100009.44;4487042;31;34726;-81
2024/03/09 08:03:17;;;;;;;1.75;1.60;;;;;;;8.91;62.92;100002.41;4470781;31;33653;-82
2024/03/09 08:05:44;;;;;;;2.28;2.15;;;;;;;8.81;61.85;100012.38;4459186;31;32933;-82
2024/03/09 08:08:13;;;;;;;3.28;2.97;;;;;;;9.04;61.43;100009.00;4485128;31;34106;-81
2024/03/09 08:10:52;;;;;;;2.30;2.15;;;;;;;9.04;61.00;100002.87;4470370;31;33111;-81
2024/03/09 08:13:23;;;;;;;1.40;1.37;;;;;;;8.76;61.77;100000.28;4472820;31;32589;-82
2024/03/09 08:15:54;;;;;;;2.42;2.10;;;;;;;9.05;61.20;99999.31;4456709;31;32699;-82
2024/03/09 08:18:22;;;;;;;1.62;0.95;;;;;;;8.93;62.02;100001.47;4481580;31;32739;-82
2024/03/09 08:20:50;;;;;;;1.42;1.33;;;;;;;9.35;60.78;100000.91;4484790;31;34196;-81
2024/03/09 08:23:18;;;;;;;1.67;1.58;;;;;;;8.72;61.47;100005.66;4458090;32;33888;-82
2024/03/09 08:25:46;;;;;;;1.77;1.67;;;;;;;9.41;59.87;100003.31;4472652;31;33497;-81
2024/03/09 08:28:14;;;;;;;1.27;1.20;;;;;;;9.13;61.12;100007.81;4465814;31;34702;-81
2024/03/09 08:30:42;;;;;;;1.70;1.52;;;;;;;9.18;61.01;100001.47;4467099;31;34160;-81
2024/03/09 08:33:09;;;;;;;5.12;3.67;;;;;;;9.34;59.61;100001.78;4473319;31;33607;-82
2024/03/09 08:35:37;;;;;;;1.98;1.70;;;;;;;9.01;60.76;99997.69;4456806;32;32547;-81
2024/03/09 08:38:06;;;;;;;2.35;1.55;;;;;;;9.21;60.14;100000.53;4478333;31;34515;-81
2024/03/09 08:40:34;;;;;;;3.17;1.75;;;;;;;9.31;59.80;100001.91;4472286;31;33806;-81
2024/03/09 08:43:06;;;;;;;0.47;0.47;;;;;;;9.15;60.19;100005.97;4459584;31;32675;-81
2024/03/09 08:45:34;;;;;;;2.78;2.28;;;;;;;9.57;59.06;99998.31;4482854;31;34652;-81
2024/03/09 08:48:04;;;;;;;1.95;1.25;;;;;;;9.52;nan;99999.41;4485004;31;33048;-81
2024/03/09 08:50:34;;;;;;;3.58;1.33;;;;;;;9.34;59.46;100003.56;4480164;31;34449;-81
2024/03/09 08:53:03;;;;;;;1.52;1.42;;;;;;;9.98;58.02;99998.56;4478054;31;35112;-82
2024/03/09 08:55:32;;;;;;;1.25;1.15;;;;;;;9.71;59.06;100001.31;4476548;31;33714;-81
2024/03/09 08:58:01;;;;;;;4.15;1.52;;;;;;;9.59;59.02;100006.16;4479083;31;33912;-81
2024/03/09 09:00:29;;;;;;;0.55;0.55;;;;;;;9.84;58.77;99996.47;4493081;31;34125;-82
2024/03/09 09:02:57;;;;;;;2.08;1.83;;;;;;;10.37;57.20;99990.91;4478912;31;33197;-81
2024/03/09 09:05:26;;;;;;;1.92;1.73;;;;;;;10.43;57.01;99984.53;4474885;31;33703;-81
2024/03/09 09:07:58;;;;;;;2.45;2.28;;;;;;;10.34;57.12;100006.84;4465779;31;32965;-81
2024/03/09 09:10:26;;;;;;;0.30;0.30;;;;;;;10.35;57.03;100003.31;4479058;31;34816;-81
2024/03/09 09:12:54;;;;;;;4.37;3.03;;;;;;;10.40;56.72;100001.38;4476515;31;33558;-81
2024/03/09 09:15:24;;;;;;;3.00;2.80;;;;;;;10.48;55.98;99993.13;4489229;31;33619;-83
2024/03/09 09:17:55;;;;;;;1.05;1.02;;;;;;;10.11;56.28;99997.19;4478970;31;34102;-82
2024/03/09 09:20:24;;;;;;;1.53;1.17;;;;;;;10.34;56.14;99993.66;4476543;31;33804;-81
2024/03/09 09:22:53;;;;;;;4.03;3.72;;;;;;;10.80;56.32;99988.31;4488461;31;32348;-82
2024/03/09 09:25:25;;;;;;;3.37;2.47;;;;;;;10.35;56.90;99990.12;4461998;31;34629;-81
2024/03/09 09:28:01;;;;;;;0.65;0.65;;;;;;;10.75;55.50;99992.00;4480586;31;34641;-81
2024/03/09 09:30:29;;;;;;;0.82;0.82;;;;;;;11.01;54.91;99983.00;4478629;31;34004;-81
2024/03/09 09:32:58;;;;;;;0.85;0.85;;;;;;;11.25;54.60;99980.19;4490188;31;33995;-81
2024/03/09 09:35:26;;;;;;;2.08;1.90;;;;;;;11.40;55.41;99974.25;4491371;31;33807;-81
2024/03/09 09:37:57;;;;;;;1.10;0.93;;;;;;;11.68;53.55;99983.56;4465674;31;33909;-82
2024/03/09 09:40:27;;;;;;;2.83;1.23;;;;;;;11.17;55.13;99972.63;4476503;31;34124;-81
2024/03/09 09:42:55;;;;;;;6.60;2.40;;;;;;;11.28;54.03;99966.84;4487567;31;32342;-81
2024/03/09 09:45:26;;;;;;;1.75;1.65;;;;;;;11.67;53.66;99963.34;4478467;31;33498;-81
2024/03/09 09:47:54;;;;;;;0.80;0.80;;;;;;;11.57;53.87;99964.69;4475984;31;34131;-81
2024/03/09 09:50:24;;;;;;;0.45;0.45;;;;;;;11.61;53.71;99961.84;4465927;31;33581;-81
2024/03/09 09:52:52;;;;;;;1.77;1.67;;;;;;;11.30;53.63;99970.31;4476693;31;33316;-81
2024/03/09 09:55:20;;;;;;;3.65;2.12;;;;;;;11.15;54.63;99965.66;4475918;31;33840;-80
2024/03/09 09:57:50;;;;;;;1.15;1.15;;;;;;;11.57;53.39;99956.75;4476053;31;33895;-80
2024/03/09 10:00:18;;;;;;;0.50;0.50;;;;;;;11.66;53.75;99953.72;4488201;31;35852;-80
2024/03/09 10:02:47;;;;;;;2.25;2.05;;;;;;;11.81;52.84;99945.06;4479505;31;33563;-80
2024/03/09 10:05:18;;;;;;;4.62;1.73;;;;;;;11.57;52.83;99944.41;4476813;31;34097;-80
2024/03/09 10:08:08;;;;;;;1.37;1.27;;;;;;;11.68;52.78;99943.91;4489628;31;34736;-80
2024/03/09 10:10:41;;;;;;;1.98;1.87;;;;;;;11.27;53.09;99941.34;4478428;31;33710;-80
2024/03/09 10:13:11;;;;;;;0.93;0.93;;;;;;;11.78;51.90;99937.28;4478390;31;33567;-80
2024/03/09 10:15:40;;;;;;;1.55;1.42;;;;;;;11.56;52.95;99945.34;4475433;31;33751;-80
2024/03/09 10:18:09;;;;;;;1.90;1.80;;;;;;;11.58;53.29;99950.53;4473092;31;32888;-80
2024/03/09 10:20:38;;;;;;;3.87;1.80;;;;;;;11.40;52.80;99941.69;4489525;31;34194;-81
2024/03/09 10:23:13;;;;;;;2.40;2.20;;;;;;;11.86;52.99;99939.59;4490838;31;34453;-80
2024/03/09 10:25:42;;;;;;;2.37;2.15;;;;;;;11.93;51.32;99941.03;4493433;31;33608;-81
2024/03/09 10:28:11;;;;;;;6.95;2.30;;;;;;;11.92;51.64;99934.03;4471423;31;32612;-81
2024/03/09 10:30:40;;;;;;;4.57;0.98;;;;;;;12.10;51.60;99926.97;4489167;31;34702;-80
2024/03/09 10:33:11;;;;;;;2.87;1.25;;;;;;;11.98;51.56;99912.56;4490981;31;33494;-81
2024/03/09 10:35:41;;;;;;;1.80;1.70;;;;;;;12.28;51.11;99910.22;4478069;31;34496;-81
2024/03/09 10:38:09;;;;;;;2.50;2.30;;;;;;;12.38;50.63;99903.53;4495349;31;33721;-81
2024/03/09 10:40:38;;;;;;;0.80;0.73;;;;;;;12.19;50.73;99900.06;4478775;31;33812;-81
2024/03/09 10:43:11;;;;;;;1.85;1.75;;;;;;;12.20;50.38;99905.31;4493363;31;34466;-81
2024/03/09 10:45:41;;;;;;;2.87;2.67;;;;;;;12.43;50.55;99893.56;4479035;31;32440;-81
2024/03/09 10:48:09;;;;;;;4.55;1.45;;;;;;;12.23;50.72;99901.63;4480869;31;33923;-81
2024/03/09 10:51:02;;;;;;;6.22;1.92;;;;;;;12.06;50.92;99905.12;4476250;31;34296;-80
2024/03/09 10:53:43;;;;;;;2.75;1.40;;;;;;;12.26;50.32;99910.28;4482262;31;32138;-81
2024/03/09 10:56:23;;;;;;;1.58;1.48;;;;;;;12.71;48.91;99900.97;4488694;31;34778;-81
2024/03/09 10:58:52;;;;;;;3.83;1.75;;;;;;;12.92;48.78;99904.34;4491559;31;34444;-81
2024/03/09 11:01:22;;;;;;;0.88;0.88;;;;;;;12.97;48.68;99904.97;4476309;31;34106;-81
2024/03/09 11:03:51;;;;;;;3.08;2.47;;;;;;;13.22;47.30;99903.69;4479087;31;33315;-83
2024/03/09 11:06:21;;;;;;;7.75;2.75;;;;;;;13.19;47.08;99909.13;4473720;31;33074;-82
2024/03/09 11:08:51;;;;;;;1.08;1.08;;;;;;;13.28;47.56;99903.38;4489656;31;33912;-81
2024/03/09 11:11:21;;;;;;;2.22;1.87;;;;;;;13.51;46.69;99892.38;4474437;31;33648;-82
2024/03/09 11:13:50;;;;;;;4.22;1.67;;;;;;;13.95;45.60;99882.91;4480064;31;34430;-81
2024/03/09 11:16:20;;;;;;;4.95;1.98;;;;;;;14.07;45.95;99893.69;4477866;31;34313;-82
2024/03/09 11:18:55;;;;;;;2.30;2.15;;;;;;;14.13;45.86;99873.03;4487490;31;33319;-81
2024/03/09 11:21:26;;;;;;;4.25;2.87;;;;;;;13.91;45.66;99876.94;4481603;31;34964;-81
2024/03/09 11:23:59;;;;;;;3.33;1.33;;;;;;;14.19;45.04;99875.34;4477632;31;33345;-82
2024/03/09 11:26:31;;;;;;;1.10;1.05;;;;;;;14.50;45.48;99870.00;4478093;31;33114;-81
2024/03/09 11:28:58;;;;;;;1.62;1.55;;;;;;;14.67;43.87;99870.78;4490610;31;33199;-81
2024/03/09 11:31:28;;;;;;;1.80;1.60;;;;;;;14.57;44.97;99871.37;4480988;31;33654;-81
2024/03/09 11:34:13;;;;;;;2.58;0.90;;;;;;;14.74;44.27;99877.47;4479633;31;34398;-82
2024/03/09 11:37:00;;;;;;;0.57;0.57;;;;;;;14.98;44.03;99876.00;4476389;31;33517;-81
2024/03/09 11:39:33;;;;;;;1.67;1.58;;;;;;;14.83;46.33;99860.97;4477761;31;34453;-81
2024/03/09 11:42:08;;;;;;;2.10;1.67;;;;;;;14.53;43.83;99853.03;4476773;31;34399;-81
2024/03/09 11:44:38;;;;;;;1.40;0.80;;;;;;;14.42;45.14;99850.09;4476290;31;32595;-81
2024/03/09 11:47:07;;;;;;;1.35;1.25;;;;;;;13.79;45.24;99846.59;4487442;31;34616;-81
2024/03/09 11:49:37;;;;;;;1.17;1.08;;;;;;;14.13;44.52;99838.53;4479209;31;35040;-81